Terminal Aerodrome Forecast
Issued by NWS

Home | Current Version | Previous Version | Text Only | Print | Product List | Glossary On
Versions: 1 2 3 4 5 6 7 8 9 10 11 12 13 14 15 16
773
FTUS46 KMTR 221541 AAA
TAFSNS
TAF AMD
KSNS 221541Z 2216/2312 VRB04KT P6SM OVC005
     FM221700 VRB04KT P6SM SCT007
     FM221800 28012KT P6SM SKC
     FM230400 29007KT P6SM SKC
     FM231000 29004KT P6SM OVC005=

USA.gov is the U.S. government's official web portal to all federal, state and local government web resources and services.